createdAt,value
2022-12-04T00:02:02.219Z,58.75
2022-12-04T00:04:28.679Z,57.10
2022-12-04T00:06:58.684Z,60.35
2022-12-04T00:09:25.462Z,56.37
2022-12-04T00:11:51.815Z,58.75
2022-12-04T00:14:18.124Z,57.13
2022-12-04T00:16:44.541Z,59.08
2022-12-04T00:19:10.903Z,60.50
2022-12-04T00:21:37.263Z,57.72
2022-12-04T00:24:03.588Z,47.83
2022-12-04T00:26:31.250Z,58.15
2022-12-04T00:28:57.612Z,59.13
2022-12-04T00:31:23.983Z,61.00
2022-12-04T00:33:50.355Z,59.50
2022-12-04T00:36:16.715Z,58.72
2022-12-04T00:38:44.138Z,63.45
2022-12-04T00:41:10.476Z,56.55
2022-12-04T00:43:36.787Z,60.05
2022-12-04T00:46:06.219Z,60.92
2022-12-04T00:48:32.609Z,63.60
2022-12-04T00:50:59.126Z,62.50
2022-12-04T00:53:25.448Z,68.97
2022-12-04T00:55:51.774Z,64.87
2022-12-04T00:58:18.073Z,61.92
2022-12-04T01:00:44.451Z,66.03
2022-12-04T01:03:10.870Z,75.10
2022-12-04T01:05:37.300Z,70.70
2022-12-04T01:08:03.728Z,68.62
2022-12-04T01:10:30.077Z,68.18
2022-12-04T01:12:56.400Z,69.47
2022-12-04T01:15:22.725Z,64.32
2022-12-04T01:17:49.083Z,65.55
2022-12-04T01:20:15.420Z,63.97
2022-12-04T01:22:41.777Z,66.62
2022-12-04T01:25:08.101Z,64.03
2022-12-04T01:27:34.423Z,64.20
2022-12-04T01:30:00.824Z,62.38
2022-12-04T01:32:27.137Z,62.28
2022-12-04T01:34:53.468Z,67.68
2022-12-04T01:37:19.781Z,62.90
2022-12-04T01:39:46.125Z,65.50
2022-12-04T01:42:12.497Z,63.75
2022-12-04T01:44:38.844Z,61.42
2022-12-04T01:47:05.173Z,58.50
2022-12-04T01:49:31.534Z,60.22
2022-12-04T01:51:57.838Z,61.75
2022-12-04T01:54:28.810Z,63.60
2022-12-04T01:56:55.378Z,58.63
2022-12-04T01:59:21.719Z,58.72
2022-12-04T02:01:48.083Z,63.13
2022-12-04T02:04:14.460Z,58.42
2022-12-04T02:06:40.772Z,57.15
2022-12-04T02:09:07.127Z,55.30
2022-12-04T02:11:33.456Z,56.60
2022-12-04T02:13:59.866Z,59.42
2022-12-04T02:16:26.244Z,59.90
2022-12-04T02:18:52.618Z,61.53
2022-12-04T02:21:18.921Z,59.80
2022-12-04T02:23:49.267Z,65.62
2022-12-04T02:26:15.578Z,65.97
2022-12-04T02:28:41.889Z,65.00
2022-12-04T02:31:08.242Z,65.50
2022-12-04T02:33:34.643Z,70.45
2022-12-04T02:36:00.956Z,66.62
2022-12-04T02:38:27.300Z,72.62
2022-12-04T02:40:53.630Z,65.87
2022-12-04T02:43:19.990Z,65.90
2022-12-04T02:45:46.688Z,71.47
2022-12-04T02:48:13.071Z,71.03
2022-12-04T02:50:39.415Z,72.70
2022-12-04T02:53:05.741Z,66.20
2022-12-04T02:55:32.085Z,72.87
2022-12-04T02:57:58.414Z,68.25
2022-12-04T03:00:24.741Z,70.43
2022-12-04T03:02:51.727Z,69.22
2022-12-04T03:05:18.106Z,64.90
2022-12-04T03:07:44.506Z,66.95
2022-12-04T03:10:11.187Z,64.12
2022-12-04T03:12:37.537Z,64.87
2022-12-04T03:15:03.949Z,65.95
2022-12-04T03:17:30.283Z,65.65
2022-12-04T03:19:56.884Z,62.58
2022-12-04T03:22:23.963Z,63.47
2022-12-04T03:24:50.281Z,63.50
2022-12-04T03:27:16.596Z,63.28
2022-12-04T03:29:42.970Z,66.75
2022-12-04T03:32:09.382Z,67.43
2022-12-04T03:34:35.712Z,66.25
2022-12-04T03:37:02.035Z,68.70
2022-12-04T03:39:28.349Z,61.90
2022-12-04T03:41:54.732Z,64.47
2022-12-04T03:44:21.070Z,64.78
2022-12-04T03:46:47.377Z,65.03
2022-12-04T03:49:14.031Z,60.03
2022-12-04T03:51:40.359Z,60.60
2022-12-04T03:54:06.675Z,65.78
2022-12-04T03:56:33.064Z,66.28
2022-12-04T03:58:59.387Z,59.03
2022-12-04T04:01:25.758Z,60.10
2022-12-04T04:03:52.173Z,67.43
2022-12-04T04:06:18.469Z,61.75
2022-12-04T04:08:44.819Z,61.70
2022-12-04T04:11:11.291Z,60.78
2022-12-04T04:13:56.629Z,61.03
2022-12-04T04:16:41.513Z,58.08
2022-12-04T04:19:26.652Z,54.30
2022-12-04T04:22:11.632Z,55.50
2022-12-04T04:24:37.954Z,54.78
2022-12-04T04:27:04.297Z,57.00
2022-12-04T04:29:30.602Z,55.33
2022-12-04T04:31:56.942Z,54.58
2022-12-04T04:34:23.371Z,55.00
2022-12-04T04:36:49.719Z,58.92
2022-12-04T04:39:16.034Z,57.15
2022-12-04T04:41:42.349Z,56.08
2022-12-04T04:44:08.655Z,59.08
2022-12-04T04:46:35.077Z,54.03
2022-12-04T04:49:01.475Z,59.75
2022-12-04T04:51:27.791Z,57.78
2022-12-04T04:53:54.100Z,57.17
2022-12-04T04:56:20.416Z,55.72
2022-12-04T04:58:46.779Z,59.58
2022-12-04T05:01:13.276Z,56.28
2022-12-04T05:03:39.624Z,53.22
2022-12-04T05:06:06.702Z,57.97
2022-12-04T05:08:33.033Z,57.97
2022-12-04T05:10:59.361Z,58.08
2022-12-04T05:13:25.671Z,55.72
2022-12-04T05:15:52.068Z,58.30
2022-12-04T05:18:18.410Z,53.42
2022-12-04T05:20:44.717Z,55.35
2022-12-04T05:23:11.027Z,56.47
2022-12-04T05:25:37.343Z,57.50
2022-12-04T05:28:03.674Z,51.83
2022-12-04T05:30:30.010Z,52.22
2022-12-04T05:32:56.322Z,55.15
2022-12-04T05:35:22.669Z,58.80
2022-12-04T05:37:49.042Z,59.78
2022-12-04T05:40:15.395Z,53.78
2022-12-04T05:42:41.746Z,59.67
2022-12-04T05:45:08.072Z,51.40
2022-12-04T05:47:34.382Z,57.47
2022-12-04T05:50:00.693Z,58.63
2022-12-04T05:52:27.011Z,58.45
2022-12-04T05:54:53.336Z,53.20
2022-12-04T05:57:19.656Z,56.28
2022-12-04T05:59:45.970Z,59.22
2022-12-04T06:02:12.414Z,57.45
2022-12-04T06:04:38.776Z,57.88
2022-12-04T06:07:05.178Z,58.92
2022-12-04T06:09:31.497Z,57.40
2022-12-04T06:11:58.113Z,61.72
2022-12-04T06:14:24.437Z,59.92
2022-12-04T06:16:50.854Z,57.67
2022-12-04T06:19:17.263Z,62.42
2022-12-04T06:21:43.613Z,60.12
2022-12-04T06:24:09.978Z,58.72
2022-12-04T06:26:36.298Z,60.40
2022-12-04T06:29:02.640Z,63.70
2022-12-04T06:31:29.087Z,60.12
2022-12-04T06:33:55.453Z,67.43
2022-12-04T06:36:21.778Z,55.65
2022-12-04T06:38:48.119Z,60.75
2022-12-04T06:41:14.438Z,54.20
2022-12-04T06:43:40.804Z,62.25
2022-12-04T06:46:07.187Z,56.35
2022-12-04T06:48:33.559Z,57.10
2022-12-04T06:50:59.927Z,57.85
2022-12-04T06:53:27.839Z,60.30
2022-12-04T06:55:55.012Z,61.53
2022-12-04T06:58:21.336Z,61.28
2022-12-04T07:00:47.768Z,58.80
2022-12-04T07:03:14.151Z,59.47
2022-12-04T07:05:40.476Z,56.08
2022-12-04T07:08:06.908Z,60.22
2022-12-04T07:10:33.309Z,67.55
2022-12-04T07:12:59.626Z,56.15
2022-12-04T07:15:26.804Z,62.47
2022-12-04T07:17:53.115Z,63.22
2022-12-04T07:20:19.431Z,64.25
2022-12-04T07:22:45.766Z,60.03
2022-12-04T07:25:12.087Z,57.25
2022-12-04T07:27:38.389Z,62.03
2022-12-04T07:30:04.716Z,66.15
2022-12-04T07:32:31.027Z,61.97
2022-12-04T07:34:57.333Z,63.30
2022-12-04T07:37:23.633Z,60.33
2022-12-04T07:39:49.942Z,59.60
2022-12-04T07:42:19.692Z,67.43
2022-12-04T07:44:50.316Z,63.30
2022-12-04T07:47:16.639Z,66.72
2022-12-04T07:49:42.964Z,66.80
2022-12-04T07:52:09.280Z,66.62
2022-12-04T07:54:35.593Z,63.20
2022-12-04T07:57:01.951Z,58.70
2022-12-04T07:59:28.298Z,62.47
2022-12-04T08:01:54.693Z,60.95
2022-12-04T08:04:21.092Z,58.10
2022-12-04T08:06:47.649Z,64.35
2022-12-04T08:09:13.994Z,60.80
2022-12-04T08:11:40.374Z,60.90
2022-12-04T08:14:08.959Z,60.42
2022-12-04T08:16:35.412Z,57.65
2022-12-04T08:20:53.698Z,54.17
2022-12-04T08:23:20.013Z,56.80
2022-12-04T08:25:46.351Z,58.55
2022-12-04T08:28:12.748Z,65.82
2022-12-04T08:30:39.113Z,64.00
2022-12-04T08:33:05.469Z,58.55
2022-12-04T08:35:31.803Z,59.90
2022-12-04T08:37:58.407Z,63.95
2022-12-04T08:40:24.714Z,58.15
2022-12-04T08:42:51.044Z,62.88
2022-12-04T08:45:17.362Z,64.60
2022-12-04T08:47:46.862Z,70.12
2022-12-04T08:50:15.623Z,62.05
2022-12-04T08:52:41.984Z,65.75
2022-12-04T08:55:08.412Z,62.38
2022-12-04T08:57:34.720Z,70.22
2022-12-04T09:00:01.268Z,65.95
2022-12-04T09:02:27.582Z,59.65
2022-12-04T09:04:54.036Z,62.35
2022-12-04T09:07:20.437Z,63.38
2022-12-04T09:09:48.510Z,58.87
2022-12-04T09:12:15.755Z,57.67
2022-12-04T09:14:42.350Z,58.50
2022-12-04T09:17:08.725Z,55.05
2022-12-04T09:19:36.039Z,58.97
2022-12-04T09:22:02.390Z,56.45
2022-12-04T09:24:28.730Z,56.40
2022-12-04T09:26:55.110Z,55.05
2022-12-04T09:29:21.441Z,58.00
2022-12-04T09:31:47.770Z,54.22
2022-12-04T09:34:14.090Z,54.90
2022-12-04T09:36:40.426Z,58.13
2022-12-04T09:39:06.794Z,54.42
2022-12-04T09:41:33.136Z,48.53
2022-12-04T09:43:59.518Z,39.85
2022-12-04T09:46:25.913Z,44.72
2022-12-04T09:48:52.340Z,42.72
2022-12-04T09:51:19.744Z,35.70
2022-12-04T09:53:46.064Z,35.15
2022-12-04T09:56:12.397Z,32.58
2022-12-04T09:58:38.735Z,33.83
2022-12-04T10:01:05.078Z,31.05
2022-12-04T10:03:31.496Z,32.35
2022-12-04T10:05:57.849Z,39.97
2022-12-04T10:08:24.192Z,36.00
2022-12-04T10:10:50.571Z,32.40
2022-12-04T10:13:16.928Z,30.35
2022-12-04T10:15:43.363Z,30.50
2022-12-04T10:18:09.684Z,32.00
2022-12-04T10:20:36.008Z,32.25
2022-12-04T10:23:02.409Z,29.23
2022-12-04T10:25:28.725Z,32.45
2022-12-04T10:27:55.057Z,31.10
2022-12-04T10:30:21.404Z,28.90
2022-12-04T10:32:47.718Z,31.75
2022-12-04T10:35:14.027Z,32.42
2022-12-04T10:37:40.340Z,34.17
2022-12-04T10:40:06.664Z,31.48
2022-12-04T10:42:33.041Z,27.90
2022-12-04T10:44:59.449Z,38.15
2022-12-04T10:47:25.851Z,32.47
2022-12-04T10:49:52.163Z,32.13
2022-12-04T10:52:18.579Z,27.95
2022-12-04T10:54:44.971Z,32.53
2022-12-04T10:57:11.345Z,31.25
2022-12-04T10:59:37.663Z,33.40
2022-12-04T11:02:07.056Z,32.20
2022-12-04T11:04:33.783Z,30.08
2022-12-04T11:07:00.178Z,30.23
2022-12-04T11:09:26.571Z,33.30
2022-12-04T11:11:52.962Z,30.85
2022-12-04T11:14:19.289Z,34.78
2022-12-04T11:16:45.787Z,32.55
2022-12-04T11:19:12.127Z,34.08
2022-12-04T11:21:38.449Z,30.98
2022-12-04T11:24:04.877Z,33.50
2022-12-04T11:26:35.115Z,35.25
2022-12-04T11:29:01.697Z,34.20
2022-12-04T11:31:28.087Z,34.08
2022-12-04T11:33:54.448Z,32.65
2022-12-04T11:36:20.829Z,31.20
2022-12-04T11:38:47.178Z,33.72
2022-12-04T11:41:13.501Z,34.55
2022-12-04T11:43:39.823Z,35.05
2022-12-04T11:46:06.903Z,32.95
2022-12-04T11:48:33.225Z,34.50
2022-12-04T11:50:59.533Z,36.63
2022-12-04T11:53:25.913Z,37.55
2022-12-04T11:55:52.217Z,35.72
2022-12-04T11:58:18.521Z,35.45
2022-12-04T12:00:44.977Z,34.33
2022-12-04T12:03:11.588Z,33.58
2022-12-04T12:05:38.057Z,37.83
2022-12-04T12:08:04.409Z,38.22
2022-12-04T12:10:32.002Z,34.85
2022-12-04T12:12:58.349Z,34.88
2022-12-04T12:15:24.949Z,37.03
2022-12-04T12:17:51.263Z,36.20
2022-12-04T12:20:17.638Z,33.63
2022-12-04T12:22:43.970Z,32.78
2022-12-04T12:25:10.297Z,33.70
2022-12-04T12:27:36.756Z,31.45
2022-12-04T12:30:03.117Z,33.10
2022-12-04T12:32:29.524Z,32.08
2022-12-04T12:34:55.893Z,34.30
2022-12-04T12:37:22.559Z,34.05
2022-12-04T12:39:48.925Z,34.28
2022-12-04T12:42:15.234Z,32.10
2022-12-04T12:44:41.565Z,32.25
2022-12-04T12:47:08.187Z,31.62
2022-12-04T12:49:34.510Z,33.80
2022-12-04T12:52:00.844Z,28.05
2022-12-04T12:54:27.189Z,32.05
2022-12-04T12:56:53.589Z,30.80
2022-12-04T12:59:19.964Z,29.98
2022-12-04T13:01:46.407Z,30.50
2022-12-04T13:04:12.824Z,29.12
2022-12-04T13:06:39.172Z,31.52
2022-12-04T13:09:06.012Z,33.00
2022-12-04T13:11:32.353Z,29.63
2022-12-04T13:13:58.775Z,30.20
2022-12-04T13:16:25.124Z,26.92
2022-12-04T13:18:51.530Z,29.60
2022-12-04T13:21:17.851Z,27.98
2022-12-04T13:23:44.170Z,29.37
2022-12-04T13:26:10.551Z,31.70
2022-12-04T13:28:37.970Z,27.37
2022-12-04T13:31:04.570Z,30.25
2022-12-04T13:33:30.967Z,28.95
2022-12-04T13:35:57.303Z,28.38
2022-12-04T13:38:23.629Z,28.45
2022-12-04T13:40:50.001Z,28.87
2022-12-04T13:43:16.449Z,27.05
2022-12-04T13:45:42.790Z,27.10
2022-12-04T13:48:09.104Z,27.23
2022-12-04T13:50:35.433Z,29.35
2022-12-04T13:53:01.791Z,28.38
2022-12-04T13:55:28.134Z,25.62
2022-12-04T13:57:54.619Z,29.20
2022-12-04T14:00:20.937Z,26.90
2022-12-04T14:02:47.305Z,26.15
2022-12-04T14:05:13.651Z,28.33
2022-12-04T14:07:40.156Z,26.25
2022-12-04T14:10:06.629Z,25.05
2022-12-04T14:12:33.009Z,25.83
2022-12-04T14:14:59.382Z,25.08
2022-12-04T14:17:25.770Z,23.12
2022-12-04T14:19:52.089Z,26.83
2022-12-04T14:22:18.386Z,25.33
2022-12-04T14:24:44.729Z,28.05
2022-12-04T14:27:12.099Z,28.75
2022-12-04T14:29:38.614Z,51.58
2022-12-04T14:32:04.932Z,55.22
2022-12-04T14:34:32.002Z,61.83
2022-12-04T14:36:58.418Z,68.00
2022-12-04T14:39:24.897Z,67.53
2022-12-04T14:41:51.212Z,70.80
2022-12-04T14:44:17.562Z,69.87
2022-12-04T14:46:43.926Z,67.87
2022-12-04T14:49:10.391Z,67.37
2022-12-04T14:51:36.714Z,70.97
2022-12-04T14:54:03.583Z,62.20
2022-12-04T14:56:29.902Z,67.00
2022-12-04T14:58:56.228Z,66.55
2022-12-04T15:01:28.346Z,68.47
2022-12-04T15:03:56.106Z,71.15
2022-12-04T15:06:22.467Z,64.75
2022-12-04T15:08:48.800Z,72.82
2022-12-04T15:11:34.019Z,71.78
2022-12-04T15:14:00.339Z,79.87
2022-12-04T15:16:26.809Z,80.07
2022-12-04T15:18:53.226Z,74.95
2022-12-04T15:21:19.544Z,74.35
2022-12-04T15:23:45.949Z,65.97
2022-12-04T15:26:12.283Z,54.20
2022-12-04T15:28:38.605Z,55.95
2022-12-04T15:31:04.958Z,59.22
2022-12-04T15:33:31.313Z,60.03
2022-12-04T15:35:57.631Z,59.38
2022-12-04T15:40:57.009Z,67.35
2022-12-04T15:43:23.318Z,60.00
2022-12-04T15:45:49.645Z,64.45
2022-12-04T15:48:15.962Z,67.75
2022-12-04T15:50:42.269Z,69.05
2022-12-04T15:53:08.630Z,64.65
2022-12-04T15:55:34.952Z,70.40
2022-12-04T15:58:01.302Z,70.40
2022-12-04T16:00:27.654Z,71.35
2022-12-04T16:02:53.968Z,74.05
2022-12-04T16:05:20.290Z,75.30
2022-12-04T16:07:46.620Z,79.40
2022-12-04T16:10:12.941Z,81.18
2022-12-04T16:12:39.370Z,84.68
2022-12-04T16:15:05.691Z,86.80
2022-12-04T16:17:32.035Z,84.05
2022-12-04T16:19:58.356Z,84.60
2022-12-04T16:22:24.762Z,66.03
2022-12-04T16:24:51.140Z,64.12
2022-12-04T16:27:17.559Z,57.50
2022-12-04T16:29:44.710Z,52.95
2022-12-04T16:32:11.055Z,61.67
2022-12-04T16:34:37.367Z,53.40
2022-12-04T16:37:03.701Z,56.20
2022-12-04T16:39:30.020Z,58.87
2022-12-04T16:41:56.363Z,65.00
2022-12-04T16:44:22.683Z,57.67
2022-12-04T16:46:49.027Z,52.58
2022-12-04T16:49:15.384Z,48.78
2022-12-04T16:51:41.794Z,46.53
2022-12-04T16:54:08.159Z,42.65
2022-12-04T16:56:34.485Z,51.45
2022-12-04T16:59:00.798Z,53.05
2022-12-04T17:01:27.170Z,51.92
2022-12-04T17:03:53.625Z,53.63
2022-12-04T17:06:20.117Z,53.58
2022-12-04T17:08:46.521Z,59.20
2022-12-04T17:11:13.145Z,49.97
2022-12-04T17:13:39.454Z,63.13
2022-12-04T17:16:05.838Z,61.80
2022-12-04T17:18:32.601Z,62.40
2022-12-04T17:20:58.965Z,61.67
2022-12-04T17:23:25.339Z,63.38
2022-12-04T17:25:51.680Z,67.87
2022-12-04T17:28:18.010Z,67.90
2022-12-04T17:30:44.386Z,73.47
2022-12-04T17:33:10.753Z,75.93
2022-12-04T17:35:37.066Z,68.25
2022-12-04T17:38:06.163Z,69.68
2022-12-04T17:40:32.765Z,64.68
2022-12-04T17:42:59.096Z,63.25
2022-12-04T17:45:25.555Z,57.78
2022-12-04T17:47:51.898Z,45.88
2022-12-04T17:50:18.228Z,43.55
2022-12-04T17:52:44.539Z,34.78
2022-12-04T17:55:10.861Z,33.63
2022-12-04T17:57:37.198Z,34.17
2022-12-04T18:00:03.563Z,30.70
2022-12-04T18:02:29.935Z,26.08
2022-12-04T18:04:56.678Z,24.73
2022-12-04T18:07:23.374Z,21.52
2022-12-04T18:09:49.746Z,21.08
2022-12-04T18:12:16.086Z,24.77
2022-12-04T18:14:42.448Z,32.17
2022-12-04T18:17:08.829Z,33.20
2022-12-04T18:19:35.183Z,23.65
2022-12-04T18:22:01.539Z,19.52
2022-12-04T18:24:27.911Z,16.70
2022-12-04T18:26:54.227Z,17.98
2022-12-04T18:29:20.558Z,18.60
2022-12-04T18:31:48.993Z,16.73
2022-12-04T18:34:15.366Z,16.77
2022-12-04T18:36:41.673Z,16.85
2022-12-04T18:39:08.321Z,16.37
2022-12-04T18:41:34.694Z,16.67
2022-12-04T18:44:03.159Z,17.23
2022-12-04T18:46:29.509Z,14.87
2022-12-04T18:48:55.886Z,15.57
2022-12-04T18:51:22.345Z,18.42
2022-12-04T18:53:48.698Z,14.60
2022-12-04T18:56:15.098Z,15.15
2022-12-04T18:58:41.832Z,16.50
2022-12-04T19:01:08.332Z,16.25
2022-12-04T19:03:34.697Z,16.00
2022-12-04T19:06:01.095Z,14.82
2022-12-04T19:08:32.898Z,15.63
2022-12-04T19:11:00.601Z,17.95
2022-12-04T19:13:26.912Z,14.65
2022-12-04T19:15:53.281Z,14.98
2022-12-04T19:18:19.634Z,15.43
2022-12-04T19:20:46.006Z,16.85
2022-12-04T19:23:12.386Z,17.00
2022-12-04T19:25:38.776Z,16.70
2022-12-04T19:28:05.123Z,16.02
2022-12-04T19:30:31.537Z,17.92
2022-12-04T19:32:57.962Z,14.95
2022-12-04T19:35:24.343Z,15.75
2022-12-04T19:37:52.705Z,15.80
2022-12-04T19:40:19.378Z,16.12
2022-12-04T19:42:45.707Z,15.90
2022-12-04T19:45:12.239Z,16.08
2022-12-04T19:47:38.554Z,16.83
2022-12-04T19:50:04.854Z,15.45
2022-12-04T19:52:31.194Z,16.58
2022-12-04T19:54:57.534Z,15.50
2022-12-04T19:57:23.846Z,14.60
2022-12-04T19:59:50.180Z,15.80
2022-12-04T20:02:16.588Z,16.87
2022-12-04T20:04:43.378Z,16.50
2022-12-04T20:07:09.716Z,18.50
2022-12-04T20:09:36.089Z,16.00
2022-12-04T20:12:03.194Z,17.20
2022-12-04T20:14:29.514Z,16.20
2022-12-04T20:16:55.912Z,15.95
2022-12-04T20:19:22.583Z,16.98
2022-12-04T20:21:48.979Z,14.95
2022-12-04T20:24:15.340Z,15.32
2022-12-04T20:26:41.738Z,15.43
2022-12-04T20:29:08.056Z,15.48
2022-12-04T20:31:34.386Z,15.77
2022-12-04T20:34:00.719Z,15.80
2022-12-04T20:36:27.060Z,15.27
2022-12-04T20:38:55.348Z,15.00
2022-12-04T20:41:21.673Z,15.57
2022-12-04T20:43:48.004Z,15.32
2022-12-04T20:46:14.475Z,15.07
2022-12-04T20:48:46.563Z,15.63
2022-12-04T20:51:12.875Z,15.02
2022-12-04T20:53:39.199Z,15.05
2022-12-04T20:56:05.528Z,14.05
2022-12-04T20:58:31.864Z,15.15
2022-12-04T21:00:58.280Z,14.77
2022-12-04T21:03:24.735Z,15.88
2022-12-04T21:05:51.066Z,15.52
2022-12-04T21:08:37.356Z,18.58
2022-12-04T21:11:03.675Z,14.80
2022-12-04T21:13:48.875Z,15.00
2022-12-04T21:16:17.800Z,16.23
2022-12-04T21:18:44.175Z,14.48
2022-12-04T21:21:10.477Z,15.05
2022-12-04T21:23:36.802Z,16.27
2022-12-04T21:26:03.145Z,15.10
2022-12-04T21:28:31.266Z,15.60
2022-12-04T21:30:57.638Z,16.50
2022-12-04T21:33:23.989Z,14.68
2022-12-04T21:35:50.323Z,14.73
2022-12-04T21:38:16.639Z,14.90
2022-12-04T21:40:42.967Z,13.88
2022-12-04T21:43:09.272Z,14.85
2022-12-04T22:00:06.014Z,12.40
2022-12-04T22:02:32.671Z,12.95
2022-12-04T22:04:59.046Z,12.13
2022-12-04T22:07:25.414Z,12.68
2022-12-04T22:09:51.748Z,12.13
2022-12-04T22:12:49.138Z,13.00
2022-12-04T22:15:04.396Z,12.35
2022-12-04T22:17:30.729Z,13.85
2022-12-04T22:19:57.406Z,13.52
2022-12-04T22:22:23.931Z,13.18
2022-12-04T22:24:50.250Z,12.80
2022-12-04T22:27:16.698Z,13.70
2022-12-04T22:29:51.210Z,13.23
2022-12-04T22:32:17.914Z,12.88
2022-12-04T22:34:44.233Z,12.85
2022-12-04T22:37:10.607Z,12.55
2022-12-04T22:39:36.955Z,12.77
2022-12-04T22:42:06.889Z,12.15
2022-12-04T22:44:33.192Z,12.98
2022-12-04T22:46:59.633Z,14.30
2022-12-04T22:49:25.978Z,16.10
2022-12-04T22:51:52.315Z,17.12
2022-12-04T22:54:18.635Z,16.33
2022-12-04T22:56:44.980Z,11.88
2022-12-04T22:59:11.382Z,13.73
2022-12-04T23:01:37.731Z,12.30
2022-12-04T23:04:04.083Z,14.20
2022-12-04T23:06:30.431Z,15.45
2022-12-04T23:08:56.760Z,15.52
2022-12-04T23:11:23.189Z,15.32
2022-12-04T23:13:49.739Z,17.75
2022-12-04T23:16:20.070Z,15.40
2022-12-04T23:18:46.951Z,15.45
2022-12-04T23:21:13.283Z,14.25
2022-12-04T23:23:39.586Z,17.00
2022-12-04T23:26:05.973Z,15.60
2022-12-04T23:28:32.293Z,17.12
2022-12-04T23:30:58.711Z,15.45
2022-12-04T23:33:25.051Z,17.92
2022-12-04T23:35:51.359Z,16.08
2022-12-04T23:38:17.691Z,15.20
2022-12-04T23:40:44.047Z,13.85
2022-12-04T23:43:10.349Z,18.17
2022-12-04T23:45:36.814Z,16.65
2022-12-04T23:48:03.119Z,16.08
2022-12-04T23:50:29.431Z,18.80
2022-12-04T23:52:55.788Z,16.37
2022-12-04T23:55:22.144Z,17.08
2022-12-04T23:57:48.535Z,16.92
